createdAt,value
2017-06-26T00:02:16.111Z,50.90
2017-06-26T00:04:43.667Z,51.00
2017-06-26T00:07:11.232Z,51.20
2017-06-26T00:09:38.770Z,51.20
2017-06-26T00:12:06.347Z,51.50
2017-06-26T00:14:33.904Z,51.80
2017-06-26T00:17:01.459Z,51.90
2017-06-26T00:19:29.018Z,51.80
2017-06-26T00:21:56.585Z,52.00
2017-06-26T00:24:24.143Z,52.90
2017-06-26T00:26:51.703Z,53.00
2017-06-26T00:29:19.235Z,53.30
2017-06-26T00:31:46.819Z,54.00
2017-06-26T00:34:14.379Z,54.20
2017-06-26T00:36:41.936Z,53.80
2017-06-26T00:39:09.494Z,54.10
2017-06-26T00:41:37.051Z,54.20
2017-06-26T00:44:04.609Z,53.80
2017-06-26T00:46:32.173Z,53.40
2017-06-26T00:48:59.731Z,53.30
2017-06-26T00:51:27.287Z,53.10
2017-06-26T00:53:54.819Z,52.90
2017-06-26T00:56:22.351Z,53.00
2017-06-26T00:58:50.659Z,53.40
2017-06-26T01:01:18.239Z,53.30
2017-06-26T01:03:45.810Z,53.30
2017-06-26T01:06:13.359Z,53.60
2017-06-26T01:08:40.915Z,53.40
2017-06-26T01:11:08.480Z,53.30
2017-06-26T01:13:36.036Z,53.50
2017-06-26T01:16:03.559Z,53.40
2017-06-26T01:18:31.158Z,53.50
2017-06-26T01:20:58.715Z,53.60
2017-06-26T01:23:26.271Z,54.00
2017-06-26T01:25:53.803Z,54.50
2017-06-26T01:28:21.332Z,54.90
2017-06-26T01:30:49.663Z,55.30
2017-06-26T01:33:17.235Z,55.30
2017-06-26T01:35:44.770Z,55.50
2017-06-26T01:38:12.342Z,55.40
2017-06-26T01:40:39.871Z,55.80
2017-06-26T01:43:07.550Z,56.60
2017-06-26T01:45:35.079Z,56.50
2017-06-26T01:48:02.684Z,56.70
2017-06-26T01:50:30.239Z,57.10
2017-06-26T01:52:57.799Z,57.60
2017-06-26T01:55:25.364Z,57.50
2017-06-26T01:57:52.887Z,57.50
2017-06-26T02:00:20.488Z,57.10
2017-06-26T02:02:48.239Z,56.60
2017-06-26T02:05:15.763Z,56.70
2017-06-26T02:07:43.355Z,56.80
2017-06-26T02:10:10.915Z,56.60
2017-06-26T02:12:38.479Z,56.30
2017-06-26T02:15:06.031Z,56.90
2017-06-26T02:17:33.595Z,57.10
2017-06-26T02:20:01.138Z,57.10
2017-06-26T02:22:28.707Z,57.20
2017-06-26T02:24:56.243Z,57.60
2017-06-26T02:27:23.803Z,57.50
2017-06-26T02:29:51.391Z,57.60
2017-06-26T02:32:18.947Z,57.00
2017-06-26T02:34:46.503Z,56.60
2017-06-26T02:37:14.068Z,56.20
2017-06-26T02:39:41.623Z,56.60
2017-06-26T02:42:09.192Z,57.30
2017-06-26T02:44:36.715Z,57.80
2017-06-26T02:47:04.299Z,57.60
2017-06-26T02:49:31.864Z,57.50
2017-06-26T02:51:59.423Z,57.10
2017-06-26T02:54:26.975Z,56.40
2017-06-26T02:56:54.535Z,56.10
2017-06-26T02:59:22.094Z,55.70
2017-06-26T03:01:49.653Z,55.40
2017-06-26T03:04:17.183Z,55.70
2017-06-26T03:06:44.727Z,55.50
2017-06-26T03:09:13.051Z,55.30
2017-06-26T03:11:52.587Z,55.20
2017-06-26T03:14:20.111Z,55.20
2017-06-26T03:16:47.703Z,55.50
2017-06-26T03:19:15.245Z,55.50
2017-06-26T03:21:42.766Z,55.30
2017-06-26T03:24:11.103Z,54.90
2017-06-26T03:26:38.655Z,54.70
2017-06-26T03:29:06.183Z,55.00
2017-06-26T03:31:33.776Z,54.60
2017-06-26T03:34:01.298Z,54.40
2017-06-26T03:36:28.895Z,54.40
2017-06-26T03:38:56.455Z,54.10
2017-06-26T03:41:23.983Z,54.40
2017-06-26T03:43:51.567Z,54.40
2017-06-26T03:46:19.130Z,54.20
2017-06-26T03:48:46.692Z,54.00
2017-06-26T03:51:14.247Z,54.00
2017-06-26T03:53:41.779Z,53.90
2017-06-26T03:56:09.312Z,53.90
2017-06-26T03:58:37.643Z,54.40
2017-06-26T04:01:05.192Z,54.30
2017-06-26T04:03:32.754Z,54.50
2017-06-26T04:06:00.283Z,54.60
2017-06-26T04:08:27.811Z,54.80
2017-06-26T04:10:56.114Z,55.60
2017-06-26T04:13:23.713Z,55.40
2017-06-26T04:15:51.267Z,55.50
2017-06-26T04:18:18.831Z,55.50
2017-06-26T04:20:46.359Z,54.70
2017-06-26T04:23:13.949Z,54.00
2017-06-26T04:25:41.487Z,53.90
2017-06-26T04:28:09.066Z,54.60
2017-06-26T04:30:36.626Z,54.00
2017-06-26T04:33:04.187Z,54.10
2017-06-26T04:35:31.743Z,54.10
2017-06-26T04:37:59.299Z,54.30
2017-06-26T04:40:26.832Z,54.00
2017-06-26T04:42:54.424Z,54.10
2017-06-26T04:45:21.954Z,53.40
2017-06-26T04:47:49.537Z,52.60
2017-06-26T04:50:17.095Z,52.30
2017-06-26T04:52:44.619Z,52.20
2017-06-26T04:55:12.147Z,52.80
2017-06-26T04:57:39.686Z,52.80
2017-06-26T05:00:07.231Z,52.60
2017-06-26T05:02:34.773Z,51.90
2017-06-26T05:05:02.307Z,52.00
2017-06-26T05:07:29.916Z,52.00
2017-06-26T05:09:57.467Z,51.40
2017-06-26T05:12:24.999Z,50.80
2017-06-26T05:14:52.534Z,50.60
2017-06-26T05:17:20.863Z,50.30
2017-06-26T05:19:48.419Z,50.30
2017-06-26T05:22:15.974Z,50.10
2017-06-26T05:24:43.539Z,50.10
2017-06-26T05:27:11.080Z,50.20
2017-06-26T05:29:38.655Z,50.30
2017-06-26T05:32:06.188Z,50.10
2017-06-26T05:34:33.718Z,49.90
2017-06-26T05:37:02.051Z,49.40
2017-06-26T05:39:29.708Z,49.40
2017-06-26T05:41:57.267Z,49.40
2017-06-26T05:44:24.807Z,48.90
2017-06-26T05:46:52.330Z,50.10
2017-06-26T05:49:20.663Z,50.60
2017-06-26T05:51:48.224Z,50.60
2017-06-26T05:54:15.761Z,50.50
2017-06-26T05:56:43.339Z,50.50
2017-06-26T05:59:10.903Z,50.90
2017-06-26T06:01:38.463Z,50.60
2017-06-26T06:04:06.119Z,51.10
2017-06-26T06:06:33.642Z,50.70
2017-06-26T06:09:01.239Z,51.00
2017-06-26T06:11:28.763Z,50.80
2017-06-26T06:13:56.354Z,50.40
2017-06-26T06:16:24.115Z,51.10
2017-06-26T06:18:51.679Z,51.50
2017-06-26T06:21:19.239Z,51.10
2017-06-26T06:23:46.798Z,51.00
2017-06-26T06:26:14.355Z,51.20
2017-06-26T06:28:41.897Z,50.90
2017-06-26T06:31:09.423Z,50.90
2017-06-26T06:33:37.726Z,52.30
2017-06-26T06:36:05.267Z,52.30
2017-06-26T06:38:32.870Z,52.10
2017-06-26T06:41:00.404Z,51.70
2017-06-26T06:43:27.983Z,51.30
2017-06-26T06:45:55.545Z,51.00
2017-06-26T06:48:23.099Z,50.80
2017-06-26T06:50:50.631Z,51.10
2017-06-26T06:53:18.171Z,50.70
2017-06-26T06:55:46.499Z,50.50
2017-06-26T06:58:14.033Z,49.80
2017-06-26T07:00:41.611Z,50.30
2017-06-26T07:03:09.171Z,50.30
2017-06-26T07:05:36.715Z,50.40
2017-06-26T07:08:04.243Z,50.50
2017-06-26T07:10:32.534Z,50.80
2017-06-26T07:13:00.062Z,50.80
2017-06-26T07:15:28.358Z,51.40
2017-06-26T07:17:55.896Z,51.40
2017-06-26T07:20:24.236Z,50.90
2017-06-26T07:22:51.772Z,50.90
2017-06-26T07:25:19.363Z,50.30
2017-06-26T07:27:46.904Z,48.50
2017-06-26T07:30:14.447Z,46.80
2017-06-26T07:32:42.035Z,47.10
2017-06-26T07:35:09.591Z,46.90
2017-06-26T07:37:37.147Z,47.90
2017-06-26T07:40:04.707Z,48.20
2017-06-26T07:42:32.263Z,48.40
2017-06-26T07:44:59.790Z,48.50
2017-06-26T07:47:27.387Z,47.90
2017-06-26T07:49:54.917Z,47.90
2017-06-26T07:52:22.500Z,48.00
2017-06-26T07:54:50.059Z,48.10
2017-06-26T07:57:17.619Z,48.20
2017-06-26T07:59:45.175Z,48.20
2017-06-26T08:02:12.711Z,48.20
2017-06-26T08:04:40.238Z,48.30
2017-06-26T08:07:08.571Z,49.00
2017-06-26T08:09:36.094Z,49.00
2017-06-26T08:12:03.688Z,48.50
2017-06-26T08:14:31.247Z,48.60
2017-06-26T08:17:02.817Z,48.50
2017-06-26T08:19:30.450Z,48.40
2017-06-26T08:21:58.009Z,48.10
2017-06-26T08:24:25.541Z,47.80
2017-06-26T08:26:53.058Z,47.70
2017-06-26T08:29:20.685Z,47.10
2017-06-26T08:31:48.246Z,47.50
2017-06-26T08:34:15.781Z,48.00
2017-06-26T08:36:43.366Z,48.30
2017-06-26T08:39:10.926Z,48.70
2017-06-26T08:41:38.454Z,48.30
2017-06-26T08:44:06.050Z,47.10
2017-06-26T08:46:33.606Z,45.90
2017-06-26T08:49:01.162Z,46.40
2017-06-26T08:51:28.718Z,45.60
2017-06-26T08:53:56.361Z,45.70
2017-06-26T08:56:23.947Z,46.00
2017-06-26T08:58:51.506Z,45.70
2017-06-26T09:01:19.030Z,46.00
2017-06-26T09:03:46.553Z,45.80
2017-06-26T09:06:14.073Z,45.50
2017-06-26T09:08:41.629Z,44.90
2017-06-26T09:11:09.199Z,44.40
2017-06-26T09:13:36.722Z,43.80
2017-06-26T09:16:04.306Z,43.00
2017-06-26T09:18:31.867Z,42.80
2017-06-26T09:20:59.405Z,42.80
2017-06-26T09:23:26.985Z,41.80
2017-06-26T09:25:54.506Z,40.90
2017-06-26T09:28:22.822Z,41.00
2017-06-26T09:30:50.378Z,41.00
2017-06-26T09:33:17.906Z,40.80
2017-06-26T09:35:46.191Z,41.30
2017-06-26T09:38:13.786Z,41.30
2017-06-26T09:40:41.334Z,42.40
2017-06-26T09:43:08.894Z,41.90
2017-06-26T09:45:36.453Z,42.50
2017-06-26T09:48:04.009Z,43.00
2017-06-26T09:50:31.570Z,43.20
2017-06-26T09:52:59.126Z,43.90
2017-06-26T09:55:26.683Z,43.90
2017-06-26T09:57:54.241Z,43.70
2017-06-26T10:00:21.757Z,44.40
2017-06-26T10:02:50.078Z,42.20
2017-06-26T10:05:17.638Z,42.10
2017-06-26T10:07:45.157Z,42.20
2017-06-26T10:10:13.449Z,40.60
2017-06-26T10:12:41.033Z,40.60
2017-06-26T10:15:08.597Z,40.80
2017-06-26T10:17:36.149Z,40.00
2017-06-26T10:20:03.678Z,39.80
2017-06-26T10:22:31.282Z,40.60
2017-06-26T10:24:58.836Z,40.90
2017-06-26T10:27:26.390Z,41.40
2017-06-26T10:29:53.946Z,41.70
2017-06-26T10:32:21.469Z,41.40
2017-06-26T10:34:49.778Z,42.20
2017-06-26T10:37:17.300Z,42.10
2017-06-26T10:39:45.618Z,42.10
2017-06-26T10:42:13.174Z,42.10
2017-06-26T10:44:40.733Z,41.00
2017-06-26T10:47:08.274Z,40.80
2017-06-26T10:49:35.802Z,40.00
2017-06-26T10:52:04.087Z,39.30
2017-06-26T10:54:32.381Z,38.10
2017-06-26T10:56:59.970Z,38.10
2017-06-26T10:59:27.509Z,38.00
2017-06-26T11:01:55.087Z,36.80
2017-06-26T11:04:22.641Z,36.30
2017-06-26T11:06:50.170Z,35.60
2017-06-26T11:09:17.686Z,35.90
2017-06-26T11:11:45.222Z,35.10
2017-06-26T11:14:12.749Z,35.60
2017-06-26T11:16:40.335Z,37.20
2017-06-26T11:19:07.899Z,38.00
2017-06-26T11:21:35.418Z,37.90
2017-06-26T11:24:03.018Z,37.90
2017-06-26T11:26:30.574Z,37.70
2017-06-26T11:28:58.094Z,36.60
2017-06-26T11:31:26.405Z,36.70
2017-06-26T11:33:53.965Z,36.70
2017-06-26T11:36:21.537Z,37.00
2017-06-26T11:38:49.079Z,37.10
2017-06-26T11:41:16.641Z,37.60
2017-06-26T11:43:44.209Z,38.10
2017-06-26T11:46:11.726Z,38.20
2017-06-26T11:48:39.317Z,38.80
2017-06-26T11:51:06.841Z,39.40
2017-06-26T11:53:34.445Z,39.80
2017-06-26T11:56:02.001Z,40.20
2017-06-26T11:58:29.562Z,40.30
2017-06-26T12:00:57.093Z,40.40
2017-06-26T12:03:24.609Z,40.00
2017-06-26T12:05:52.138Z,39.70
2017-06-26T12:08:19.653Z,39.90
2017-06-26T12:10:47.938Z,38.90
2017-06-26T12:13:18.478Z,38.90
2017-06-26T12:15:46.865Z,37.80
2017-06-26T12:18:14.425Z,37.80
2017-06-26T12:20:41.993Z,38.90
2017-06-26T12:23:09.547Z,38.70
2017-06-26T12:25:37.132Z,38.90
2017-06-26T12:28:04.765Z,39.10
2017-06-26T12:30:32.334Z,38.00
2017-06-26T12:32:59.858Z,38.10
2017-06-26T12:35:27.443Z,38.30
2017-06-26T12:37:55.010Z,36.50
2017-06-26T12:40:22.557Z,35.70
2017-06-26T12:42:50.125Z,35.20
2017-06-26T12:45:17.685Z,35.10
2017-06-26T12:47:45.209Z,35.10
2017-06-26T12:50:12.730Z,34.70
2017-06-26T12:52:40.341Z,34.50
2017-06-26T12:55:07.914Z,34.50
2017-06-26T12:57:35.478Z,35.40
2017-06-26T13:00:03.038Z,36.40
2017-06-26T13:02:30.594Z,37.30
2017-06-26T13:04:58.163Z,37.50
2017-06-26T13:07:25.745Z,37.90
2017-06-26T13:09:53.266Z,37.50
2017-06-26T13:12:21.647Z,36.90
2017-06-26T13:14:49.219Z,36.70
2017-06-26T13:17:16.766Z,36.60
2017-06-26T13:19:44.326Z,36.60
2017-06-26T13:22:11.841Z,36.40
2017-06-26T13:24:40.139Z,35.60
2017-06-26T13:27:07.722Z,35.60
2017-06-26T13:29:35.277Z,36.10
2017-06-26T13:32:02.838Z,36.50
2017-06-26T13:34:30.349Z,36.70
2017-06-26T13:36:58.687Z,39.10
2017-06-26T13:39:26.233Z,38.90
2017-06-26T13:41:53.791Z,39.40
2017-06-26T13:44:21.345Z,39.90
2017-06-26T13:46:48.906Z,40.60
2017-06-26T13:49:16.474Z,41.20
2017-06-26T13:51:44.025Z,41.20
2017-06-26T13:54:11.589Z,41.40
2017-06-26T13:56:39.130Z,41.90
2017-06-26T13:59:06.702Z,42.10
2017-06-26T14:01:34.265Z,42.20
2017-06-26T14:04:01.827Z,42.20
2017-06-26T14:06:29.382Z,42.40
2017-06-26T14:08:56.937Z,41.90
2017-06-26T14:11:24.502Z,41.40
2017-06-26T14:13:52.035Z,41.40
2017-06-26T14:16:19.617Z,40.30
2017-06-26T14:18:47.173Z,40.90
2017-06-26T14:21:14.734Z,41.00
2017-06-26T14:23:42.258Z,41.50
2017-06-26T14:26:09.866Z,41.10
2017-06-26T14:28:37.389Z,40.80
2017-06-26T14:31:04.982Z,41.80
2017-06-26T14:33:32.510Z,41.80
2017-06-26T14:36:00.086Z,42.80
2017-06-26T14:38:27.649Z,42.80
2017-06-26T14:40:55.181Z,42.70
2017-06-26T14:43:22.756Z,42.50
2017-06-26T14:45:50.289Z,42.60
2017-06-26T14:48:17.863Z,42.70
2017-06-26T14:50:45.396Z,43.00
2017-06-26T14:53:13.726Z,43.90
2017-06-26T14:55:41.273Z,43.90
2017-06-26T14:58:08.849Z,43.80
2017-06-26T15:00:36.377Z,43.90
2017-06-26T15:03:03.958Z,43.70
2017-06-26T15:05:31.513Z,43.70
2017-06-26T15:07:59.175Z,43.70
2017-06-26T15:10:26.738Z,42.80
2017-06-26T15:12:54.289Z,42.50
2017-06-26T15:15:21.809Z,42.10
2017-06-26T15:17:50.098Z,41.80
2017-06-26T15:20:17.622Z,41.70
2017-06-26T15:22:45.250Z,42.10
2017-06-26T15:25:12.806Z,41.80
2017-06-26T15:27:40.321Z,42.20
2017-06-26T15:30:08.638Z,41.70
2017-06-26T15:32:36.193Z,41.60
2017-06-26T15:35:03.766Z,40.50
2017-06-26T15:37:31.313Z,39.60
2017-06-26T15:39:58.873Z,38.90
2017-06-26T15:42:26.442Z,39.00
2017-06-26T15:44:53.989Z,38.90
2017-06-26T15:47:21.556Z,38.50
2017-06-26T15:49:49.116Z,37.00
2017-06-26T15:52:16.677Z,38.40
2017-06-26T15:54:44.206Z,38.50
2017-06-26T15:57:11.888Z,38.60
2017-06-26T15:59:39.463Z,38.50
2017-06-26T16:02:07.030Z,38.50
2017-06-26T16:04:34.559Z,38.00
2017-06-26T16:07:02.088Z,37.20
2017-06-26T16:09:30.416Z,37.40
2017-06-26T16:11:57.980Z,37.30
2017-06-26T16:14:25.531Z,37.20
2017-06-26T16:16:53.095Z,36.70
2017-06-26T16:19:20.647Z,35.20
2017-06-26T16:21:48.180Z,34.80
2017-06-26T16:24:15.716Z,33.90
2017-06-26T16:26:44.034Z,34.50
2017-06-26T16:29:11.603Z,34.50
2017-06-26T16:31:39.159Z,34.60
2017-06-26T16:34:06.696Z,34.90
2017-06-26T16:36:34.279Z,34.90
2017-06-26T16:39:01.805Z,34.80
2017-06-26T16:41:29.398Z,35.00
2017-06-26T16:43:56.927Z,34.50
2017-06-26T16:46:24.457Z,35.10
2017-06-26T16:48:52.776Z,34.80
2017-06-26T16:51:20.351Z,34.70
2017-06-26T16:53:47.912Z,34.60
2017-06-26T16:56:15.471Z,35.00
2017-06-26T16:58:43.031Z,35.10
2017-06-26T17:01:10.591Z,35.30
2017-06-26T17:03:38.143Z,34.20
2017-06-26T17:06:05.711Z,34.30
2017-06-26T17:08:33.375Z,34.70
2017-06-26T17:11:00.899Z,35.10
2017-06-26T17:13:28.443Z,35.40
2017-06-26T17:15:55.975Z,35.80
2017-06-26T17:18:23.503Z,36.10
2017-06-26T17:20:51.027Z,36.50
2017-06-26T17:23:18.621Z,36.90
2017-06-26T17:25:46.275Z,37.10
2017-06-26T17:28:13.834Z,37.10
2017-06-26T17:30:41.400Z,37.30
2017-06-26T17:33:08.924Z,37.00
2017-06-26T17:35:36.516Z,37.20
2017-06-26T17:38:04.071Z,37.40
2017-06-26T17:40:31.631Z,37.80
2017-06-26T17:42:59.190Z,38.10
2017-06-26T17:45:27.570Z,38.00
2017-06-26T17:47:55.134Z,37.90
2017-06-26T17:50:22.686Z,38.00
2017-06-26T17:52:50.220Z,37.90
2017-06-26T17:55:17.812Z,38.10
2017-06-26T17:57:45.367Z,38.50
2017-06-26T18:00:12.905Z,38.40
2017-06-26T18:02:40.484Z,38.70
2017-06-26T18:05:08.040Z,38.80
2017-06-26T18:07:35.599Z,39.10
2017-06-26T18:10:03.140Z,39.40
2017-06-26T18:12:30.675Z,39.20
2017-06-26T18:14:58.270Z,39.10
2017-06-26T18:17:25.840Z,39.00
2017-06-26T18:19:53.399Z,39.00
2017-06-26T18:22:20.928Z,38.90
2017-06-26T18:24:48.459Z,38.70
2017-06-26T18:27:16.771Z,39.10
2017-06-26T18:29:44.351Z,39.10
2017-06-26T18:32:11.908Z,39.10
2017-06-26T18:34:39.468Z,39.30
2017-06-26T18:37:07.023Z,39.00
2017-06-26T18:39:34.583Z,38.90
2017-06-26T18:42:02.143Z,39.00
2017-06-26T18:44:29.702Z,38.60
2017-06-26T18:46:57.263Z,38.70
2017-06-26T18:49:24.819Z,38.80
2017-06-26T18:51:52.483Z,38.80
2017-06-26T18:54:20.049Z,38.70
2017-06-26T18:56:47.570Z,38.90
2017-06-26T18:59:15.160Z,38.80
2017-06-26T19:01:42.719Z,38.90
2017-06-26T19:04:10.263Z,39.00
2017-06-26T19:06:37.792Z,39.00
2017-06-26T19:09:05.387Z,39.20
2017-06-26T19:11:32.915Z,39.20
2017-06-26T19:14:00.452Z,39.10
2017-06-26T19:16:28.795Z,39.60
2017-06-26T19:18:56.351Z,39.60
2017-06-26T19:21:23.907Z,39.70
2017-06-26T19:23:51.450Z,39.80
2017-06-26T19:26:19.022Z,39.60
2017-06-26T19:28:46.583Z,40.10
2017-06-26T19:31:14.123Z,40.00
2017-06-26T19:33:41.703Z,40.00
2017-06-26T19:36:09.264Z,40.00
2017-06-26T19:38:36.839Z,40.10
2017-06-26T19:41:04.378Z,39.90
2017-06-26T19:43:31.924Z,40.30
2017-06-26T19:45:59.483Z,40.30
2017-06-26T19:48:27.006Z,40.40
2017-06-26T19:50:55.307Z,40.40
2017-06-26T19:53:22.891Z,40.40
2017-06-26T19:55:50.427Z,40.20
2017-06-26T19:58:17.955Z,40.60
2017-06-26T20:00:46.255Z,40.80
2017-06-26T20:03:13.846Z,40.80
2017-06-26T20:05:41.398Z,41.00
2017-06-26T20:08:08.935Z,40.80
2017-06-26T20:10:36.523Z,41.20
2017-06-26T20:13:04.078Z,41.30
2017-06-26T20:15:31.639Z,41.30
2017-06-26T20:17:59.207Z,41.30
2017-06-26T20:20:26.755Z,41.60
2017-06-26T20:22:54.319Z,41.60
2017-06-26T20:25:21.876Z,41.70
2017-06-26T20:27:49.435Z,41.40
2017-06-26T20:30:16.972Z,41.90
2017-06-26T20:32:44.519Z,41.70
2017-06-26T20:35:12.106Z,41.90
2017-06-26T20:37:39.672Z,41.70
2017-06-26T20:40:07.200Z,42.10
2017-06-26T20:42:34.746Z,42.10
2017-06-26T20:45:02.275Z,42.30
2017-06-26T20:47:29.915Z,42.10
2017-06-26T20:49:57.439Z,42.30
2017-06-26T20:52:25.019Z,42.40
2017-06-26T20:54:52.562Z,42.30
2017-06-26T20:57:20.143Z,41.70
2017-06-26T20:59:47.724Z,41.70
2017-06-26T21:02:15.367Z,42.40
2017-06-26T21:04:42.891Z,42.30
2017-06-26T21:07:10.487Z,42.30
2017-06-26T21:09:38.050Z,42.20
2017-06-26T21:12:05.703Z,42.70
2017-06-26T21:14:33.239Z,42.30
2017-06-26T21:17:00.814Z,42.20
2017-06-26T21:19:28.378Z,42.60
2017-06-26T21:21:55.906Z,42.50
2017-06-26T21:24:23.503Z,42.70
2017-06-26T21:26:51.038Z,42.70
2017-06-26T21:29:18.616Z,42.40
2017-06-26T21:31:46.171Z,43.00
2017-06-26T21:34:13.727Z,43.00
2017-06-26T21:36:41.286Z,43.00
2017-06-26T21:39:08.827Z,43.10
2017-06-26T21:41:36.495Z,43.20
2017-06-26T21:44:04.067Z,43.20
2017-06-26T21:46:31.595Z,43.40
2017-06-26T21:48:59.119Z,43.40
2017-06-26T21:51:26.751Z,43.40
2017-06-26T21:53:54.275Z,43.40
2017-06-26T21:56:21.869Z,43.40
2017-06-26T21:58:49.431Z,43.40
2017-06-26T22:01:16.979Z,43.50
2017-06-26T22:03:44.506Z,43.80
2017-06-26T22:06:12.099Z,44.20
2017-06-26T22:08:39.632Z,44.30
2017-06-26T22:11:07.231Z,44.60
2017-06-26T22:13:34.768Z,44.70
2017-06-26T22:16:02.342Z,44.70
2017-06-26T22:18:29.900Z,44.80
2017-06-26T22:20:57.996Z,44.90
2017-06-26T22:23:25.575Z,45.00
2017-06-26T22:25:53.886Z,45.20
2017-06-26T22:28:21.465Z,45.10
2017-06-26T22:30:49.025Z,45.80
2017-06-26T22:33:16.580Z,45.00
2017-06-26T22:35:51.739Z,45.20
2017-06-26T22:48:14.596Z,46.40
2017-06-26T22:56:45.747Z,46.10
2017-06-26T23:05:42.939Z,45.90
2017-06-26T23:14:11.159Z,46.50
2017-06-26T23:16:57.299Z,46.50
2017-06-26T23:25:04.814Z,46.50
2017-06-26T23:27:32.395Z,46.50
2017-06-26T23:29:59.919Z,46.40
2017-06-26T23:32:27.447Z,46.20
2017-06-26T23:34:54.978Z,46.10
2017-06-26T23:37:22.608Z,46.10
2017-06-26T23:39:50.181Z,46.10
2017-06-26T23:42:17.758Z,46.30
2017-06-26T23:44:45.314Z,46.60
2017-06-26T23:47:12.854Z,46.60
2017-06-26T23:49:40.416Z,46.90
2017-06-26T23:52:07.970Z,46.80
2017-06-26T23:54:35.526Z,46.90
2017-06-26T23:57:03.085Z,46.60
2017-06-26T23:59:30.596Z,46.80
